Time;durP1;ratioP1;P1;durP2;ratioP2;P2;SDS_P1;SDS_P2;PMS_P1;PMS_P2;Temp;Humidity;BMP_temperature;BMP_pressure;BME280_temperature;BME280_humidity;BME280_pressure;Samples;Min_cycle;Max_cycle;Signal;HPM_P1;HPM_P2
2021/10/14 00:00:19;;;;;;;27.45;11.75;;;;;;;13.32;92.85;102533.50;5074906;28;20032;-48
2021/10/14 00:02:44;;;;;;;34.95;12.38;;;;;;;13.32;92.94;102545.19;5092419;28;20102;-49
2021/10/14 00:05:10;;;;;;;25.67;11.85;;;;;;;13.32;92.94;102534.38;5067386;28;20648;-47
2021/10/14 00:07:35;;;;;;;26.70;12.05;;;;;;;13.33;92.81;102530.63;5037289;28;20025;-48
2021/10/14 00:10:00;;;;;;;23.05;11.48;;;;;;;13.35;92.91;102534.03;5073179;28;20107;-47
2021/10/14 00:12:26;;;;;;;27.23;11.60;;;;;;;13.36;92.89;102535.72;5072870;28;20107;-48
2021/10/14 00:14:51;;;;;;;26.13;11.35;;;;;;;13.35;92.77;102523.22;5072949;28;20494;-47
2021/10/14 00:17:16;;;;;;;22.20;10.68;;;;;;;13.31;92.83;102521.81;5072835;28;20021;-46
2021/10/14 00:19:42;;;;;;;16.25;10.32;;;;;;;13.32;92.58;102522.66;5035622;28;20037;-50
2021/10/14 00:22:07;;;;;;;18.48;10.23;;;;;;;13.28;92.38;102510.50;5052765;28;20025;-50
2021/10/14 00:24:32;;;;;;;17.58;10.25;;;;;;;13.27;92.52;102503.38;5018448;28;20029;-48
2021/10/14 00:26:58;;;;;;;21.13;10.02;;;;;;;13.24;92.41;102507.22;5052798;28;20100;-47
2021/10/14 00:29:23;;;;;;;18.80;9.70;;;;;;;13.26;92.46;102507.06;5048311;28;20119;-48
2021/10/14 00:31:48;;;;;;;16.35;9.48;;;;;;;13.25;92.45;102506.22;5072686;28;20033;-46
2021/10/14 00:34:14;;;;;;;21.42;10.68;;;;;;;13.23;92.10;102505.53;5054684;28;20024;-48
2021/10/14 00:36:39;;;;;;;17.20;9.82;;;;;;;13.24;92.30;102499.09;5072668;28;20537;-50
2021/10/14 00:39:04;;;;;;;22.30;9.57;;;;;;;13.24;92.34;102503.66;5061576;28;20033;-46
2021/10/14 00:41:30;;;;;;;20.58;10.52;;;;;;;13.24;92.17;102503.66;5052241;28;20068;-46
2021/10/14 00:43:58;;;;;;;16.75;9.38;;;;;;;13.24;92.27;102499.09;5052565;28;20036;-48
2021/10/14 00:46:23;;;;;;;;;;;;;;;13.24;92.20;102504.50;5052731;28;20033;-48
2021/10/14 00:48:48;;;;;;;25.95;9.38;;;;;;;13.23;92.09;102492.00;5060671;28;20520;-47
2021/10/14 00:51:14;;;;;;;17.70;9.13;;;;;;;13.24;92.26;102496.41;5072637;28;20040;-50
2021/10/14 00:53:39;;;;;;;15.63;10.25;;;;;;;13.24;92.28;102500.97;5072404;28;20020;-46
2021/10/14 00:56:06;;;;;;;14.13;9.93;;;;;;;13.24;92.16;102498.25;5072402;28;20056;-50
2021/10/14 00:58:33;;;;;;;20.05;10.50;;;;;;;13.25;92.21;102495.41;5068564;28;20392;-48
2021/10/14 01:01:00;;;;;;;17.17;10.15;;;;;;;13.28;92.33;102491.56;5052180;28;20029;-46
2021/10/14 01:03:26;;;;;;;24.38;11.30;;;;;;;13.30;92.44;102493.09;5052219;28;20060;-46
2021/10/14 01:05:51;;;;;;;22.58;11.35;;;;;;;13.34;92.38;102485.50;5052289;28;20112;-51
2021/10/14 01:08:16;;;;;;;34.90;14.07;;;;;;;13.41;92.19;102485.72;5064561;28;20075;-52
2021/10/14 01:10:42;;;;;;;31.20;14.43;;;;;;;13.45;92.08;102478.97;5052198;28;20293;-50
2021/10/14 01:13:08;;;;;;;29.65;14.73;;;;;;;13.47;92.17;102482.38;5052856;28;20025;-48
2021/10/14 01:15:33;;;;;;;31.15;15.30;;;;;;;13.48;92.21;102478.66;5056256;28;20025;-47
2021/10/14 01:17:58;;;;;;;24.00;13.98;;;;;;;13.51;92.21;102475.66;5056248;28;20112;-47
2021/10/14 01:20:24;;;;;;;26.20;14.63;;;;;;;13.53;92.02;102479.00;5071326;28;20052;-45
2021/10/14 01:22:50;;;;;;;22.50;13.88;;;;;;;13.54;92.00;102475.31;5058335;28;20399;-49
2021/10/14 01:25:15;;;;;;;26.65;14.35;;;;;;;13.54;92.19;102469.91;5076261;28;20025;-49
2021/10/14 01:27:41;;;;;;;27.52;13.73;;;;;;;13.56;91.98;102473.28;5076190;28;20051;-47
2021/10/14 01:30:08;;;;;;;26.70;13.25;;;;;;;13.60;91.69;102466.53;5059257;28;20357;-49
2021/10/14 01:32:34;;;;;;;24.38;14.55;;;;;;;13.57;91.54;102462.31;5055990;28;20036;-46
2021/10/14 01:35:00;;;;;;;24.95;14.82;;;;;;;13.55;91.84;102455.34;5056118;28;20086;-46
2021/10/14 01:37:27;;;;;;;25.25;14.88;;;;;;;13.54;92.02;102456.38;5055916;28;20032;-45
2021/10/14 01:39:52;;;;;;;25.20;14.75;;;;;;;13.52;91.84;102452.97;5069748;28;20024;-46
2021/10/14 01:42:18;;;;;;;25.70;14.95;;;;;;;13.49;92.12;102453.31;5074019;28;20048;-46
2021/10/14 01:44:43;;;;;;;25.45;15.55;;;;;;;13.48;92.32;102449.78;5075566;28;20035;-48
2021/10/14 01:47:08;;;;;;;27.45;16.30;;;;;;;13.47;92.53;102448.06;5075605;28;20064;-48
2021/10/14 01:49:34;;;;;;;27.13;16.67;;;;;;;13.45;92.57;102457.34;5063935;28;20033;-46
2021/10/14 01:51:59;;;;;;;28.58;16.27;;;;;;;13.44;92.48;102461.06;5055692;28;20033;-48
2021/10/14 01:54:24;;;;;;;27.08;15.88;;;;;;;13.44;92.68;102459.19;5055580;28;20025;-47
2021/10/14 01:56:50;;;;;;;29.90;16.98;;;;;;;13.44;92.70;102458.34;5055431;28;20037;-48
2021/10/14 01:59:15;;;;;;;32.22;17.02;;;;;;;13.45;92.68;102462.75;5056524;28;20029;-47
2021/10/14 02:01:40;;;;;;;36.67;17.50;;;;;;;13.45;92.62;102460.88;5055336;28;20136;-47
2021/10/14 02:04:06;;;;;;;26.60;16.70;;;;;;;13.46;92.88;102461.75;5055410;28;20021;-45
2021/10/14 02:06:31;;;;;;;29.42;16.60;;;;;;;13.45;92.79;102454.63;5037612;28;20037;-46
2021/10/14 02:08:56;;;;;;;30.48;16.33;;;;;;;13.45;92.83;102457.34;5060848;28;20115;-46
2021/10/14 02:11:22;;;;;;;33.60;17.55;;;;;;;13.46;92.85;102448.22;5075217;28;20107;-46
2021/10/14 02:13:47;;;;;;;27.02;16.13;;;;;;;13.46;92.81;102448.22;5075130;28;20108;-49
2021/10/14 02:16:13;;;;;;;26.17;16.20;;;;;;;13.46;92.91;102445.53;5075130;28;20040;-48
2021/10/14 02:18:38;;;;;;;28.67;16.70;;;;;;;13.44;92.98;102455.66;5071708;28;20036;-49
2021/10/14 02:21:03;;;;;;;31.92;16.35;;;;;;;13.43;93.16;102448.53;5054941;28;20029;-47
2021/10/14 02:23:29;;;;;;;34.97;16.65;;;;;;;13.42;93.05;102447.69;5055116;28;20021;-50
2021/10/14 02:25:54;;;;;;;34.95;18.02;;;;;;;13.41;92.98;102446.00;5036251;28;20109;-47
2021/10/14 02:28:20;;;;;;;28.70;16.80;;;;;;;13.39;93.25;102440.75;5077848;28;20028;-47
2021/10/14 02:30:45;;;;;;;30.35;16.13;;;;;;;13.42;93.11;102446.84;5074927;28;20020;-47
2021/10/14 02:33:11;;;;;;;32.47;17.60;;;;;;;13.42;93.06;102433.31;5074985;28;20043;-47
2021/10/14 02:35:36;;;;;;;30.30;17.13;;;;;;;13.43;92.92;102432.31;5075219;28;20027;-49
2021/10/14 02:38:02;;;;;;;27.67;16.30;;;;;;;13.43;92.72;102424.19;5074801;28;20020;-47
2021/10/14 02:40:27;;;;;;;29.98;17.05;;;;;;;13.45;92.84;102430.28;5073864;28;20060;-48
2021/10/14 02:42:53;;;;;;;30.30;17.00;;;;;;;13.46;92.87;102438.25;5074816;28;20092;-50
2021/10/14 02:45:18;;;;;;;37.67;18.77;;;;;;;13.47;92.85;102444.50;5074526;28;20031;-46
2021/10/14 02:47:43;;;;;;;34.42;18.40;;;;;;;13.51;92.83;102435.06;5074592;28;20038;-49
2021/10/14 02:50:09;;;;;;;29.13;14.45;;;;;;;13.57;92.46;102440.66;5064628;28;20029;-47
2021/10/14 02:52:34;;;;;;;25.33;13.65;;;;;;;13.60;92.09;102439.50;5054505;28;20032;-47
2021/10/14 02:54:59;;;;;;;21.15;11.13;;;;;;;13.69;91.77;102437.66;5055445;28;20116;-47
2021/10/14 02:57:26;;;;;;;24.08;10.00;;;;;;;13.69;91.48;102443.94;5036472;28;20383;-50
2021/10/14 02:59:51;;;;;;;22.88;8.93;;;;;;;13.69;91.54;102435.81;5055172;28;20549;-47
2021/10/14 03:02:16;;;;;;;19.90;8.70;;;;;;;13.70;91.24;102434.81;5054240;28;20048;-46
2021/10/14 03:04:42;;;;;;;13.93;8.50;;;;;;;13.69;91.23;102433.13;5054173;28;20079;-49
2021/10/14 03:07:07;;;;;;;15.73;7.78;;;;;;;13.66;91.13;102432.56;5054269;28;20061;-49
2021/10/14 03:09:32;;;;;;;12.20;7.60;;;;;;;13.66;91.17;102432.56;5057875;28;20394;-48
2021/10/14 03:11:58;;;;;;;18.35;8.00;;;;;;;13.62;90.94;102432.06;5074163;28;20082;-48
2021/10/14 03:14:23;;;;;;;15.05;6.75;;;;;;;13.63;90.69;102439.16;5073985;28;20028;-46
2021/10/14 03:16:48;;;;;;;19.35;7.47;;;;;;;13.62;90.75;102426.66;5073900;28;20035;-49
2021/10/14 03:19:14;;;;;;;28.20;7.57;;;;;;;13.65;90.66;102426.31;5072662;28;20336;-49
2021/10/14 03:21:39;;;;;;;14.70;6.90;;;;;;;13.61;90.35;102424.94;5053806;28;20021;-49
2021/10/14 03:24:04;;;;;;;12.68;6.40;;;;;;;13.58;90.49;102436.94;5053961;28;20109;-46
2021/10/14 03:26:30;;;;;;;10.70;6.63;;;;;;;13.56;90.39;102435.41;5053928;28;20028;-48
2021/10/14 03:28:56;;;;;;;14.82;7.00;;;;;;;13.54;90.50;102429.34;5053661;28;20024;-48
2021/10/14 03:31:21;;;;;;;17.88;7.03;;;;;;;13.56;90.15;102433.56;5053906;28;20072;-46
2021/10/14 03:33:47;;;;;;;16.23;6.55;;;;;;;13.55;89.96;102431.00;5073340;28;20039;-49
2021/10/14 03:36:12;;;;;;;16.63;6.65;;;;;;;13.54;89.99;102423.91;5073573;28;20387;-46
2021/10/14 03:38:37;;;;;;;20.20;6.90;;;;;;;13.51;89.83;102432.38;5073668;28;20104;-47
2021/10/14 03:41:03;;;;;;;17.38;6.85;;;;;;;13.53;89.82;102424.91;5037003;28;20495;-46
2021/10/14 03:43:28;;;;;;;25.83;7.53;;;;;;;13.53;89.78;102416.81;5053529;28;20033;-49
2021/10/14 03:45:53;;;;;;;19.48;7.40;;;;;;;13.51;89.37;102419.69;5053199;28;20036;-47
2021/10/14 03:48:19;;;;;;;16.40;7.60;;;;;;;13.53;89.48;102419.50;5053460;28;20052;-50
2021/10/14 03:50:46;;;;;;;23.63;7.68;;;;;;;13.52;89.06;102426.78;5068248;28;20055;-46
2021/10/14 03:53:11;;;;;;;13.25;7.07;;;;;;;13.52;89.59;102420.53;5073283;28;20419;-47
2021/10/14 03:55:36;;;;;;;23.60;8.65;;;;;;;13.50;89.64;102422.53;5073189;28;20024;-47
2021/10/14 03:58:02;;;;;;;21.40;8.02;;;;;;;13.49;89.96;102423.56;5073226;28;20107;-46
2021/10/14 04:00:27;;;;;;;17.45;8.13;;;;;;;13.45;89.80;102428.44;5070836;28;20059;-48
2021/10/14 04:02:52;;;;;;;18.23;7.47;;;;;;;13.46;90.00;102426.59;5073012;28;20036;-46
2021/10/14 04:05:18;;;;;;;15.43;7.07;;;;;;;13.45;89.89;102430.28;5072993;28;20028;-49
2021/10/14 04:07:43;;;;;;;14.20;6.00;;;;;;;13.45;88.87;102430.28;5073004;28;20031;-49
2021/10/14 04:10:09;;;;;;;15.45;6.45;;;;;;;13.44;89.26;102431.31;5072317;28;20109;-48
2021/10/14 04:12:34;;;;;;;11.93;5.78;;;;;;;13.43;88.90;102426.91;5072930;28;20036;-49
2021/10/14 04:14:59;;;;;;;25.70;6.05;;;;;;;13.42;88.59;102431.47;5072831;28;20076;-49
2021/10/14 04:17:25;;;;;;;15.70;5.55;;;;;;;13.41;88.37;102435.19;5072996;28;20074;-49
2021/10/14 04:19:50;;;;;;;15.50;4.97;;;;;;;13.43;87.39;102432.31;5066887;28;20043;-49
2021/10/14 04:22:16;;;;;;;9.20;4.28;;;;;;;13.42;87.04;102430.63;5072768;28;20394;-50
2021/10/14 04:24:41;;;;;;;10.07;4.10;;;;;;;13.45;87.24;102433.00;5072778;28;20021;-48
2021/10/14 04:27:07;;;;;;;9.45;4.72;;;;;;;13.42;87.02;102419.81;5055071;28;20089;-47
2021/10/14 04:29:32;;;;;;;9.13;3.92;;;;;;;13.39;86.65;102426.38;5054351;28;20028;-48
2021/10/14 04:31:57;;;;;;;11.43;4.00;;;;;;;13.38;86.53;102419.28;5072541;28;20060;-50
2021/10/14 04:34:23;;;;;;;7.75;3.75;;;;;;;13.38;86.15;102422.84;5054493;28;20107;-49
2021/10/14 04:36:48;;;;;;;11.23;3.67;;;;;;;13.39;86.09;102421.81;5072418;28;20059;-49
2021/10/14 04:39:15;;;;;;;9.40;3.65;;;;;;;13.42;85.46;102417.09;5054118;28;20471;-48
2021/10/14 04:41:41;;;;;;;8.35;3.35;;;;;;;13.42;85.26;102417.09;5043668;28;20407;-47
2021/10/14 04:44:08;;;;;;;6.43;2.90;;;;;;;13.45;85.46;102408.66;5056855;28;20032;-47
2021/10/14 04:46:33;;;;;;;9.45;2.80;;;;;;;13.43;84.91;102411.53;5085268;28;20467;-49
2021/10/14 04:48:59;;;;;;;6.72;3.47;;;;;;;13.46;85.35;102421.19;5042078;28;20120;-48
2021/10/14 04:51:24;;;;;;;4.82;3.22;;;;;;;13.46;85.83;102418.47;5067899;28;20047;-48
2021/10/14 04:53:49;;;;;;;5.70;3.55;;;;;;;13.42;85.54;102411.69;5054689;28;20411;-50
2021/10/14 04:56:15;;;;;;;7.47;3.40;;;;;;;13.43;85.86;102419.66;5057401;28;20039;-50
2021/10/14 04:58:40;;;;;;;6.18;3.47;;;;;;;13.43;85.77;102416.94;5065539;28;20037;-49
2021/10/14 05:01:05;;;;;;;11.80;3.45;;;;;;;13.45;85.73;102416.75;5070262;28;20021;-48
2021/10/14 05:03:31;;;;;;;6.95;3.55;;;;;;;13.45;85.47;102419.47;5070714;28;20044;-49
2021/10/14 05:05:56;;;;;;;8.63;3.80;;;;;;;13.44;85.61;102417.78;5070421;28;20081;-50
2021/10/14 05:08:21;;;;;;;12.07;3.90;;;;;;;13.44;86.14;102417.78;5070751;28;20035;-48
2021/10/14 05:10:47;;;;;;;10.48;3.95;;;;;;;13.44;86.32;102417.78;5070635;28;20033;-49
2021/10/14 05:13:12;;;;;;;9.38;3.70;;;;;;;13.44;85.70;102412.38;5070801;28;20524;-50
2021/10/14 05:15:41;;;;;;;8.30;3.63;;;;;;;13.47;85.53;102417.47;5071109;28;20040;-48
2021/10/14 05:18:07;;;;;;;9.68;3.42;;;;;;;13.47;85.54;102417.47;5067552;28;20135;-49
2021/10/14 05:20:32;;;;;;;7.82;3.80;;;;;;;13.49;85.14;102410.03;5054962;28;20090;-45
2021/10/14 05:22:58;;;;;;;6.85;3.85;;;;;;;13.48;85.53;102413.72;5071009;28;20464;-47
2021/10/14 05:25:23;;;;;;;8.27;3.53;;;;;;;13.46;85.45;102408.50;5070705;28;20100;-48
2021/10/14 05:27:49;;;;;;;13.32;4.55;;;;;;;13.46;85.88;102408.50;5063059;28;20408;-50
2021/10/14 05:30:15;;;;;;;11.82;4.03;;;;;;;13.46;85.48;102410.38;5071246;28;20471;-48
2021/10/14 05:32:40;;;;;;;13.07;4.38;;;;;;;13.49;85.32;102404.63;5069420;28;20067;-47
2021/10/14 05:35:06;;;;;;;16.10;4.18;;;;;;;13.50;85.17;102409.84;5071246;28;20025;-49
2021/10/14 05:37:31;;;;;;;11.75;4.00;;;;;;;13.51;85.60;102408.03;5070793;28;20040;-49
2021/10/14 05:39:56;;;;;;;11.05;4.43;;;;;;;13.51;85.43;102408.03;5069781;28;20031;-47
2021/10/14 05:42:22;;;;;;;11.80;4.50;;;;;;;13.54;85.62;102413.09;5070465;28;20131;-50
2021/10/14 05:44:48;;;;;;;13.73;4.55;;;;;;;13.54;85.53;102407.69;5070163;28;20025;-48
2021/10/14 05:47:13;;;;;;;7.70;4.40;;;;;;;13.54;85.59;102410.41;5069961;28;20032;-45
2021/10/14 05:49:38;;;;;;;9.13;4.45;;;;;;;13.55;85.58;102410.22;5070006;28;20056;-47
2021/10/14 05:52:05;;;;;;;7.90;4.53;;;;;;;13.58;86.25;102409.03;5070297;28;20024;-47
2021/10/14 05:54:31;;;;;;;8.23;4.93;;;;;;;13.55;86.31;102406.66;5070829;28;20090;-47
2021/10/14 05:56:58;;;;;;;13.88;5.47;;;;;;;13.55;85.65;102402.09;5068710;28;20430;-46
2021/10/14 05:59:32;;;;;;;9.80;4.85;;;;;;;13.55;86.03;102398.56;5082736;28;20400;-48
2021/10/14 06:01:57;;;;;;;11.93;5.30;;;;;;;13.55;86.15;102404.81;5089145;28;20051;-48
2021/10/14 06:04:23;;;;;;;15.13;6.38;;;;;;;13.56;85.68;102401.13;5089014;28;20024;-47
2021/10/14 06:06:48;;;;;;;13.48;6.80;;;;;;;13.57;85.93;102399.25;5089078;28;20095;-48
2021/10/14 06:09:13;;;;;;;20.35;8.15;;;;;;;13.61;85.62;102392.47;5088732;28;20450;-47
2021/10/14 06:11:39;;;;;;;15.98;7.57;;;;;;;13.60;86.43;102401.63;5089482;28;20027;-46
2021/10/14 06:14:04;;;;;;;13.43;7.35;;;;;;;13.59;86.63;102402.66;5087939;28;20057;-46
2021/10/14 06:16:29;;;;;;;16.48;8.23;;;;;;;13.58;86.22;102403.63;5088685;28;20028;-47
2021/10/14 06:18:55;;;;;;;13.88;7.35;;;;;;;13.57;86.08;102401.94;5088323;28;20047;-47
2021/10/14 06:21:20;;;;;;;17.85;7.55;;;;;;;13.56;86.17;102395.69;5109345;28;20066;-48
2021/10/14 06:23:45;;;;;;;13.38;6.68;;;;;;;13.56;85.71;102394.81;5099999;28;20024;-50
2021/10/14 06:26:11;;;;;;;14.95;6.70;;;;;;;13.55;85.76;102390.44;5091423;28;20042;-49
2021/10/14 06:28:36;;;;;;;9.32;6.22;;;;;;;13.55;85.08;102387.75;5086984;28;20028;-50
2021/10/14 06:31:02;;;;;;;10.25;5.60;;;;;;;13.52;83.61;102388.06;5095673;28;20020;-50
2021/10/14 06:33:27;;;;;;;8.05;4.72;;;;;;;13.54;83.61;102386.06;5088795;28;20077;-49
2021/10/14 06:35:52;;;;;;;10.63;5.53;;;;;;;13.55;84.43;102380.47;5088611;28;20514;-48
2021/10/14 06:38:18;;;;;;;9.90;4.72;;;;;;;13.54;83.50;102383.34;5086398;28;20379;-45
2021/10/14 06:40:43;;;;;;;11.57;5.18;;;;;;;13.54;83.02;102386.06;5088317;28;20368;-49
2021/10/14 06:43:08;;;;;;;8.82;5.43;;;;;;;13.55;82.97;102376.91;5103013;28;20378;-49
2021/10/14 06:45:34;;;;;;;11.05;5.93;;;;;;;13.54;83.03;102378.78;5081500;28;20749;-49
2021/10/14 06:47:59;;;;;;;10.75;5.53;;;;;;;13.53;83.84;102378.94;5067968;28;20029;-46
2021/10/14 06:50:25;;;;;;;8.80;5.93;;;;;;;13.55;83.98;102390.44;5080500;28;20429;-49
2021/10/14 06:52:50;;;;;;;10.57;5.85;;;;;;;13.55;84.30;102382.31;5088110;28;20446;-49
2021/10/14 06:55:15;;;;;;;8.95;6.40;;;;;;;13.59;84.38;102389.13;5075137;28;20054;-48
2021/10/14 06:57:41;;;;;;;10.93;6.38;;;;;;;13.58;84.30;102393.66;5074280;28;20044;-47
2021/10/14 07:00:07;;;;;;;11.13;6.65;;;;;;;13.61;84.53;102387.06;5068264;28;20051;-49
2021/10/14 07:02:33;;;;;;;12.57;6.70;;;;;;;13.63;84.59;102387.75;5083223;28;20038;-50
2021/10/14 07:04:59;;;;;;;14.82;6.78;;;;;;;13.62;84.35;102380.66;5087380;28;20025;-47
2021/10/14 07:07:24;;;;;;;11.38;7.13;;;;;;;13.64;84.88;102386.78;5070188;28;20036;-48
2021/10/14 07:09:49;;;;;;;16.50;6.93;;;;;;;13.61;84.01;102384.38;5060706;28;20033;-46
2021/10/14 07:12:15;;;;;;;13.00;7.47;;;;;;;13.61;84.20;102384.38;5054828;28;20040;-46
2021/10/14 07:14:41;;;;;;;13.40;8.07;;;;;;;13.63;84.91;102393.16;5070488;28;20034;-51
2021/10/14 07:17:07;;;;;;;10.43;7.60;;;;;;;13.63;84.68;102389.63;5067198;28;20029;-46
2021/10/14 07:19:32;;;;;;;19.00;7.40;;;;;;;13.64;84.69;102392.19;5054457;28;20055;-50
2021/10/14 07:21:57;;;;;;;16.40;7.82;;;;;;;13.67;84.40;102389.13;5054736;28;20440;-49
2021/10/14 07:24:24;;;;;;;14.18;7.20;;;;;;;13.68;84.68;102393.53;5069146;28;20033;-49
2021/10/14 07:26:50;;;;;;;18.38;7.60;;;;;;;13.72;84.50;102383.25;5055091;28;20025;-50
2021/10/14 07:29:15;;;;;;;16.25;7.80;;;;;;;13.72;84.39;102381.38;5057353;28;20426;-49
2021/10/14 07:31:40;;;;;;;12.70;7.20;;;;;;;13.72;83.79;102384.09;5056558;28;20078;-50
2021/10/14 07:34:06;;;;;;;14.63;6.93;;;;;;;13.73;83.68;102377.66;5054092;28;20091;-47
2021/10/14 07:36:31;;;;;;;17.67;7.30;;;;;;;13.77;83.62;102379.03;5054965;28;20021;-50
2021/10/14 07:38:58;;;;;;;17.13;6.88;;;;;;;13.77;83.12;102379.03;5033309;28;20039;-48
2021/10/14 07:41:23;;;;;;;11.30;6.45;;;;;;;13.81;83.09;102377.66;5034854;28;20022;-47
2021/10/14 07:43:48;;;;;;;15.63;7.28;;;;;;;13.87;83.26;102380.72;5060192;28;20096;-50
2021/10/14 07:46:14;;;;;;;10.38;7.18;;;;;;;13.91;83.17;102377.53;5074516;28;20025;-48
2021/10/14 07:48:39;;;;;;;12.32;6.40;;;;;;;13.95;83.24;102378.03;5055954;28;20033;-48
2021/10/14 07:51:05;;;;;;;8.23;6.28;;;;;;;13.97;82.53;102381.41;5072689;28;20116;-48
2021/10/14 07:53:30;;;;;;;10.63;6.65;;;;;;;14.06;82.54;102380.44;5071957;28;20044;-50
2021/10/14 07:55:56;;;;;;;13.63;6.55;;;;;;;14.10;82.49;102381.78;5063309;28;20025;-49
2021/10/14 07:58:21;;;;;;;9.73;6.07;;;;;;;14.16;81.06;102378.38;5054532;28;20075;-51
2021/10/14 08:00:46;;;;;;;13.02;6.07;;;;;;;14.19;80.87;102380.78;5052237;28;20512;-48
2021/10/14 08:03:12;;;;;;;11.98;5.88;;;;;;;14.27;80.03;102383.50;5053801;28;20112;-51
2021/10/14 08:05:37;;;;;;;8.52;4.85;;;;;;;14.33;79.24;102389.25;5054049;28;20058;-49
2021/10/14 08:08:04;;;;;;;14.60;5.93;;;;;;;14.43;79.26;102392.63;5053477;28;20037;-51
2021/10/14 08:10:30;;;;;;;8.63;5.30;;;;;;;14.51;79.29;102395.34;5053588;28;20401;-47
2021/10/14 08:12:55;;;;;;;15.20;4.85;;;;;;;14.68;77.41;102390.78;5053577;28;20032;-50
2021/10/14 08:15:21;;;;;;;8.85;4.93;;;;;;;14.65;77.21;102380.28;5053605;28;20033;-47
2021/10/14 08:17:46;;;;;;;12.52;4.85;;;;;;;14.69;78.25;102390.63;5053000;28;20033;-52
2021/10/14 08:20:12;;;;;;;7.55;4.88;;;;;;;14.75;77.50;102396.38;5053087;28;20033;-47
2021/10/14 08:22:37;;;;;;;11.52;4.30;;;;;;;14.74;77.83;102386.53;5052230;28;20033;-51
2021/10/14 08:25:08;;;;;;;8.27;3.95;;;;;;;14.74;76.78;102389.25;5053690;28;20029;-49
2021/10/14 08:27:33;;;;;;;11.85;4.20;;;;;;;14.86;75.91;102387.88;5056980;28;20040;-47
2021/10/14 08:29:59;;;;;;;8.68;4.20;;;;;;;14.88;75.57;102385.84;5052192;28;20136;-50
2021/10/14 08:32:24;;;;;;;12.90;4.32;;;;;;;15.06;76.08;102385.59;5063347;28;20028;-50
2021/10/14 08:34:49;;;;;;;11.50;3.90;;;;;;;15.30;75.23;102390.97;5053615;28;20028;-48
2021/10/14 08:37:21;;;;;;;10.15;4.28;;;;;;;15.44;74.86;102388.53;5052789;28;20025;-46
2021/10/14 08:39:47;;;;;;;15.60;4.32;;;;;;;15.47;74.35;102391.72;5052851;28;20033;-49
2021/10/14 08:42:13;;;;;;;8.48;4.30;;;;;;;15.49;75.69;102386.97;5052748;28;20509;-50
2021/10/14 08:44:38;;;;;;;10.07;3.80;;;;;;;15.45;75.79;102393.78;5053108;28;20112;-50
2021/10/14 08:47:04;;;;;;;9.00;4.63;;;;;;;15.47;74.45;102389.03;5051718;28;20020;-50
2021/10/14 08:49:30;;;;;;;7.70;3.83;;;;;;;15.54;75.03;102386.47;5051291;28;20083;-48
2021/10/14 08:51:56;;;;;;;9.57;4.20;;;;;;;15.44;74.11;102389.38;5051595;28;20025;-52
2021/10/14 08:54:21;;;;;;;6.43;3.25;;;;;;;15.39;74.11;102389.06;5052957;28;20025;-51
2021/10/14 08:56:48;;;;;;;7.57;3.58;;;;;;;15.39;75.11;102397.19;5052334;28;20032;-50
2021/10/14 08:59:18;;;;;;;10.27;3.88;;;;;;;15.33;75.46;102400.63;5037678;28;20045;-51
2021/10/14 09:01:43;;;;;;;13.32;3.50;;;;;;;15.28;74.75;102403.00;5053215;28;20480;-47
2021/10/14 09:04:14;;;;;;;10.63;3.65;;;;;;;15.22;75.68;102403.69;5052540;28;20033;-51
2021/10/14 09:06:40;;;;;;;11.25;3.10;;;;;;;15.17;75.46;102397.97;5051064;28;20369;-48
2021/10/14 09:09:06;;;;;;;10.57;3.13;;;;;;;15.08;75.22;102403.41;5052892;28;20058;-48
2021/10/14 09:11:31;;;;;;;8.18;3.38;;;;;;;15.21;75.80;102388.44;5052614;28;20047;-47
2021/10/14 09:14:03;;;;;;;11.40;3.05;;;;;;;15.49;74.99;102386.97;5052388;28;20099;-50
2021/10/14 09:16:32;;;;;;;12.15;3.38;;;;;;;15.97;73.87;102401.34;5052334;28;20105;-50
2021/10/14 09:19:20;;;;;;;4.32;2.70;;;;;;;16.58;72.18;102395.94;5052207;28;20049;-50
2021/10/14 09:21:50;;;;;;;8.93;3.05;;;;;;;17.24;69.23;102390.69;5052630;28;20029;-49
2021/10/14 09:24:28;;;;;;;4.97;3.03;;;;;;;17.48;67.01;102381.38;5052622;28;20395;-49
2021/10/14 09:26:55;;;;;;;8.80;3.05;;;;;;;17.44;67.95;102390.13;5052262;28;20498;-50
2021/10/14 09:29:22;;;;;;;11.97;3.10;;;;;;;17.80;64.70;102389.31;5052449;28;20033;-50
2021/10/14 09:32:00;;;;;;;6.13;2.67;;;;;;;18.06;65.19;102384.16;5065471;28;20032;-51
2021/10/14 09:34:28;;;;;;;12.00;3.10;;;;;;;18.09;64.24;102380.19;5072506;28;20036;-49
2021/10/14 09:36:54;;;;;;;6.95;2.72;;;;;;;17.96;64.41;102380.91;5065030;28;20082;-51
2021/10/14 09:39:20;;;;;;;7.60;3.20;;;;;;;17.64;67.17;102379.47;5052335;28;20082;-49
2021/10/14 09:41:45;;;;;;;9.30;3.67;;;;;;;17.49;67.12;102376.78;5068953;28;20441;-50
2021/10/14 09:44:16;;;;;;;10.88;3.33;;;;;;;17.28;68.67;102370.22;5072119;28;20048;-48
2021/10/14 09:46:50;;;;;;;5.50;3.30;;;;;;;17.28;67.02;102367.50;5058732;28;20079;-51
2021/10/14 09:49:23;;;;;;;9.05;3.55;;;;;;;17.31;68.40;102369.00;5066879;28;20032;-49
2021/10/14 09:51:49;;;;;;;6.32;3.60;;;;;;;17.34;67.20;102365.91;5067419;28;20044;-47
2021/10/14 09:54:14;;;;;;;7.22;3.58;;;;;;;17.45;66.07;102364.56;5051418;28;20037;-48
2021/10/14 09:56:40;;;;;;;6.78;3.67;;;;;;;17.49;65.14;102366.72;5052276;28;20044;-48
2021/10/14 09:59:06;;;;;;;5.15;2.85;;;;;;;17.41;65.07;102357.84;5048785;28;20047;-48
2021/10/14 10:01:33;;;;;;;7.03;3.50;;;;;;;17.16;67.21;102371.72;5061847;28;20417;-50
2021/10/14 10:03:58;;;;;;;9.77;3.87;;;;;;;17.11;67.65;102371.44;5050880;28;20202;-52
2021/10/14 10:06:26;;;;;;;5.00;3.42;;;;;;;17.10;66.96;102370.63;5050037;28;20311;-51
2021/10/14 10:08:51;;;;;;;;;;;;;;;17.14;66.34;102379.25;5051615;28;20083;-49
2021/10/14 10:11:17;;;;;;;14.60;4.50;;;;;;;17.01;67.10;102368.16;5050540;28;19931;-47
2021/10/14 10:13:45;;;;;;;18.85;4.03;;;;;;;16.95;67.86;102368.94;5050356;28;20305;-46
2021/10/14 10:16:13;;;;;;;8.18;4.35;;;;;;;17.01;67.69;102365.44;5033355;28;20029;-49
2021/10/14 10:18:40;;;;;;;6.85;3.70;;;;;;;17.08;66.23;102363.66;5051603;28;20118;-48
2021/10/14 10:21:09;;;;;;;13.27;4.85;;;;;;;16.94;67.48;102370.81;5051777;28;20112;-51
2021/10/14 10:23:43;;;;;;;8.50;4.20;;;;;;;16.78;67.03;102360.13;5051803;28;20094;-49
2021/10/14 10:26:34;;;;;;;11.55;3.78;;;;;;;16.68;67.37;102346.75;5051374;28;20032;-50
2021/10/14 10:29:00;;;;;;;11.07;4.10;;;;;;;16.49;69.70;102352.72;5051806;28;20036;-48
2021/10/14 10:31:46;;;;;;;10.00;4.15;;;;;;;16.37;69.83;102353.16;5051553;28;20025;-48
2021/10/14 10:34:41;;;;;;;5.50;3.80;;;;;;;16.23;70.02;102353.97;5049193;28;20025;-50
2021/10/14 10:37:37;;;;;;;6.68;3.33;;;;;;;16.15;70.32;102351.31;5051744;28;20056;-48
2021/10/14 10:40:17;;;;;;;7.03;3.25;;;;;;;16.22;69.60;102346.84;5050298;28;20036;-49
2021/10/14 10:42:50;;;;;;;6.88;3.20;;;;;;;16.29;69.59;102345.06;5051714;28;20024;-49
2021/10/14 10:45:23;;;;;;;6.05;2.53;;;;;;;16.53;68.93;102343.16;5085159;28;20119;-49
2021/10/14 10:47:57;;;;;;;5.70;2.50;;;;;;;16.62;66.42;102342.06;5055226;28;20033;-49
2021/10/14 10:50:24;;;;;;;5.53;2.83;;;;;;;16.59;67.98;102343.28;5055169;28;20029;-50
2021/10/14 10:53:01;;;;;;;6.63;3.00;;;;;;;16.54;68.25;102334.84;5055175;28;20468;-48
2021/10/14 10:55:26;;;;;;;7.05;3.15;;;;;;;16.43;69.05;102340.72;5055094;28;20036;-50
2021/10/14 10:57:53;;;;;;;5.50;3.22;;;;;;;16.16;68.79;102342.97;5054865;28;20036;-51
2021/10/14 11:00:20;;;;;;;4.40;3.05;;;;;;;16.00;69.49;102330.34;5053089;28;20052;-48
2021/10/14 11:02:46;;;;;;;11.30;3.50;;;;;;;15.88;70.60;102337.25;5053830;28;20083;-50
2021/10/14 11:05:12;;;;;;;8.57;3.63;;;;;;;15.78;71.16;102336.66;5054296;28;20057;-50
2021/10/14 11:07:38;;;;;;;8.65;3.40;;;;;;;15.72;71.92;102337.38;5054400;28;20029;-50
2021/10/14 11:10:04;;;;;;;9.95;3.35;;;;;;;15.76;72.03;102330.53;5054087;28;20037;-51
2021/10/14 11:12:30;;;;;;;9.60;3.38;;;;;;;15.61;71.89;102326.88;5054891;28;20062;-52
2021/10/14 11:14:55;;;;;;;4.90;2.83;;;;;;;15.56;71.18;102322.84;5054173;28;20056;-49